Johnson Lake, Nebraska
Current Conditions -  °F | °C
As of 10:15 AM on Monday 22 Dec 2014 (Local Time) from KLXN Reporting Station
Clear Clear  
Wind Chill: 32°   Ceiling: Unl
Heat Index: 40°   Visibility: 10mi
Dew Point: 35°   Wind: 15mph
Humidity: 82%   Direction: 300°WNW
Pressure: 29.57"   Gusts: 20mph
Location:  40.5034°N, 99.8442°W
Report Text: KLXN 221615Z AUTO 30013G17KT 10SM CLR 05/02 A2957 RMK AO2 T00450017
Loading
Personal Weather Stations






























Interactive Weather Map New forecast layout! Learn more

10-Day Weather Forecast

Advertisements
Track Severe Weather on mobile